• Join FlightAware (Why Join?)
  • Login
  • US Flag 
05:42PM EST


 

Airport Tracker/Info


-or-


 

Live Flight TrackerFlight Track Log ✈ QLK115 ✈ 26-Apr-2013 ✈ YCFS - YSSY / SYD

Flight Track Log - Related Links

Times and Time Zones

All times are in EDT time to prevent confusion due to time zone crossing. See the QLK115 flight status page for this flight to view local times or setup timezone preferences in your user account.

Time Position Orientation Groundspeed Altitude Reporting Facility
EDT Latitude Longitude Course Direction KTS MPH feet Rate Location/Type
05:29AM -30.4069 153.0410 230° Southwest 18,000  Level Aus ATC (Calculated)
05:29AM -30.4069 153.0410 230° Southwest 18,000 -3,060 Level Aus ATC (Calculated)
05:31AM -30.5015 152.9646 266° West 18,000 -3,600 Level Aus ATC (Calculated)
05:32AM -30.5048 152.9040 229° Southwest 188 216 8,800 -4,680 Descending Aus ATC (RADAR)
05:33AM -30.5280 152.8724 229° Southwest 193 222 9,900 1,620 Climbing Aus ATC (RADAR)
05:33AM -30.5375 152.8613 225° Southwest 193 222 10,300 1,500 Climbing Aus ATC (RADAR)
05:34AM -30.5669 152.8340 219° Southwest 201 231 11,300 1,560 Climbing Aus ATC (RADAR)
05:34AM -30.6048 152.8051 213° Southwest 193 222 12,700 1,320 Climbing Aus ATC (RADAR)
05:35AM -30.6345 152.7867 208° Southwest 205 236 13,200 1,260 Climbing Aus ATC (RADAR)
05:36AM -30.6786 152.7526 214° Southwest 206 237 14,600 1,320 Climbing Aus ATC (RADAR)
05:37AM -30.7248 152.7200 211° Southwest 213 245 15,700 1,080 Climbing Aus ATC (RADAR)
05:37AM -30.7536 152.6972 214° Southwest 215 247 16,300 1,080 Climbing Aus ATC (RADAR)
05:38AM -30.7744 152.6815 213° Southwest 214 246 16,800 1,080 Climbing Aus ATC (RADAR)
05:38AM -30.8055 152.6597 211° Southwest 223 257 17,400 360 Climbing Aus ATC (RADAR)
05:39AM -30.8464 152.6262 215° Southwest 243 280 17,300 -120 Descending Aus ATC (RADAR)
05:40AM -30.8823 152.5986 213° Southwest 261 300 17,300  Level Aus ATC (RADAR)
05:40AM -30.9306 152.5627 212° Southwest 273 314 17,300  Level Aus ATC (RADAR)
05:41AM -30.9521 152.5465 213° Southwest 275 316 17,300  Level Aus ATC (RADAR)
05:41AM -30.9900 152.5181 213° Southwest 278 320 17,300  Level Aus ATC (RADAR)
05:42AM -31.0544 152.4692 213° Southwest 278 320 17,300  Level Aus ATC (RADAR)
05:43AM -31.0707 152.4568 213° Southwest 279 321 17,300  Level Aus ATC (RADAR)
05:43AM -31.1135 152.4239 213° Southwest 278 320 17,300  Level Aus ATC (RADAR)
05:44AM -31.1784 152.3746 213° Southwest 277 319 17,300  Level Aus ATC (RADAR)
05:45AM -31.2169 152.3458 213° Southwest 281 323 17,300  Level Aus ATC (RADAR)
05:46AM -31.2865 152.2927 213° Southwest 277 319 17,300  Level Aus ATC (RADAR)
05:47AM -31.3248 152.2637 213° Southwest 280 322 17,300  Level Aus ATC (RADAR)
05:48AM -31.3881 152.2145 214° Southwest 274 315 17,300  Level Aus ATC (RADAR)
05:48AM -31.4038 152.2022 214° Southwest 273 314 17,300  Level Aus ATC (RADAR)
05:48AM -31.4412 152.1737 213° Southwest 274 315 17,300  Level Aus ATC (RADAR)
05:49AM -31.4945 152.1329 213° Southwest 275 316 17,300  Level Aus ATC (RADAR)
05:50AM -31.5375 152.1007 213° Southwest 276 318 17,300  Level Aus ATC (RADAR)
05:51AM -31.5906 152.0592 214° Southwest 277 319 17,300  Level Aus ATC (RADAR)
05:51AM -31.6066 152.0468 213° Southwest 276 318 17,300  Level Aus ATC (RADAR)
05:52AM -31.6442 152.0182 213° Southwest 277 319 17,300  Level Aus ATC (RADAR)
05:53AM -31.7237 151.9561 214° Southwest 275 316 17,300  Level Aus ATC (RADAR)
05:53AM -31.7398 151.9437 213° Southwest 276 318 17,300  Level Aus ATC (RADAR)
05:54AM -31.7773 151.9150 213° Southwest 277 319 17,300  Level Aus ATC (RADAR)
05:54AM -31.8252 151.8778 213° Southwest 276 318 17,300  Level Aus ATC (RADAR)
05:55AM -31.8614 151.8474 215° Southwest 276 318 17,300  Level Aus ATC (RADAR)
05:56AM -31.9300 151.7879 216° Southwest 268 308 17,300 -120 Level Aus ATC (RADAR)
05:57AM -31.9634 151.7665 209° Southwest 269 310 17,200 -60 Descending Aus ATC (RADAR)
05:58AM -32.0642 151.7260 199° South 277 319 17,200  Level Aus ATC (RADAR)
05:58AM -32.0821 151.7184 200° South 275 316 17,200  Level Aus ATC (RADAR)
05:59AM -32.1240 151.7001 200° South 274 315 17,200  Level Aus ATC (RADAR)
05:59AM -32.1750 151.6778 200° South 276 318 17,200  Level Aus ATC (RADAR)
06:00AM -32.2139 151.6607 200° South 275 316 17,200  Level Aus ATC (RADAR)
06:01AM -32.2821 151.6300 201° Southwest 274 315 17,200  Level Aus ATC (RADAR)
06:01AM -32.3000 151.6224 200° South 273 314 17,200  Level Aus ATC (RADAR)
06:02AM -32.3418 151.6043 200° South 273 314 17,200  Level Aus ATC (RADAR)
06:03AM -32.4335 151.5631 201° Southwest 272 313 17,200  Level Aus ATC (RADAR)
06:03AM -32.4513 151.5553 200° South 272 313 17,200  Level Aus ATC (RADAR)
06:04AM -32.4959 151.5361 200° South 272 313 17,200  Level Aus ATC (RADAR)
06:05AM -32.5644 151.5053 201° Southwest 274 315 17,200  Level Aus ATC (RADAR)
06:06AM -32.6119 151.4837 201° Southwest 273 314 17,200  Level Aus ATC (RADAR)
06:06AM -32.6681 151.4590 200° South 271 312 17,200  Level Aus ATC (RADAR)
06:07AM -32.6946 151.4470 201° Southwest 271 312 17,200  Level Aus ATC (RADAR)
06:08AM -32.7821 151.4076 201° Southwest 269 310 17,200  Level Aus ATC (RADAR)
06:08AM -32.7996 151.3997 201° Southwest 269 310 17,200  Level Aus ATC (RADAR)
06:09AM -32.8402 151.3816 201° Southwest 266 306 17,200  Level Aus ATC (RADAR)
06:10AM -32.9031 151.3532 201° Southwest 262 302 17,200  Level Aus ATC (RADAR)
06:10AM -32.9433 151.3352 201° Southwest 263 303 17,200  Level Aus ATC (RADAR)
06:11AM -33.0065 151.3067 201° Southwest 265 305 17,200  Level Aus ATC (RADAR)
06:12AM -33.0296 151.2964 201° Southwest 266 306 17,200 -540 Level Aus ATC (RADAR)
06:12AM -33.0877 151.2703 201° Southwest 269 310 16,600 -1,020 Descending Aus ATC (RADAR)
06:13AM -33.1414 151.2464 200° South 273 314 15,600 -1,500 Descending Aus ATC (RADAR)
06:14AM -33.2088 151.2199 198° South 272 313 14,200 -1,500 Descending Aus ATC (RADAR)
06:15AM -33.2716 151.2188 181° South 263 303 13,000 -1,380 Descending Aus ATC (RADAR)
06:16AM -33.3171 151.2168 182° South 263 303 12,200 -1,320 Descending Aus ATC (RADAR)
06:17AM -33.4196 151.2105 183° South 247 284 10,300 -1,440 Descending Aus ATC (RADAR)
06:19AM -33.5355 151.2040 183° South 254 292 7,900 -1,500 Descending Aus ATC (RADAR)
06:19AM -33.5534 151.2031 182° South 252 290 7,600 -1,380 Descending Aus ATC (RADAR)
06:19AM -33.5984 151.2006 183° South 257 296 6,700 -1,200 Descending Aus ATC (RADAR)
06:20AM -33.6503 151.1971 183° South 249 287 6,000 -600 Descending Aus ATC (RADAR)
06:21AM -33.6879 151.1955 182° South 246 283 6,000  Level Aus ATC (RADAR)
06:22AM -33.7487 151.2104 168° South 245 282 6,000  Level Aus ATC (RADAR)
06:22AM -33.7639 151.2215 149° Southeast 246 283 6,000  Level Aus ATC (RADAR)
06:23AM -33.8211 151.2568 153° Southeast 246 283 6,000  Level Aus ATC (RADAR)
06:24AM -33.8643 151.2872 150° Southeast 252 290 6,000  Level Aus ATC (RADAR)
06:24AM -33.9062 151.3131 153° Southeast 253 291 6,000  Level Aus ATC (RADAR)
06:25AM -33.9662 151.3278 168° South 245 282 6,000 -240 Level Aus ATC (RADAR)
06:26AM -34.0063 151.3390 167° South 250 288 5,700 -1,200 Descending Aus ATC (RADAR)
06:27AM -34.0670 151.3246 191° South 231 266 4,200 -1,680 Descending Aus ATC (RADAR)
06:27AM -34.0788 151.3096 227° Southwest 215 247 3,700 -1,560 Descending Aus ATC (RADAR)
06:28AM -34.0926 151.2581 252° West 180 207 2,400 -1,260 Descending Aus ATC (RADAR)
06:28AM -34.0745 151.2307 309° West 178 205 1,900 -720 Descending Aus ATC (RADAR)
06:29AM -34.0659 151.2202 315° West 174 200 1,800 -600 Descending Aus ATC (RADAR)
06:29AM -34.0401 151.2121 345° North 165 190 1,400 -720 Descending Aus ATC (RADAR)
06:30AM -34.0089 151.2036 347° North 121 139 800 -660 Descending Aus ATC (RADAR)
06:31AM -33.9911 151.1991 348° North 113 130 500 -540 Descending Aus ATC (RADAR)